Terminal Aerodrome Forecast
Issued by NWS

Current Version | Previous Version | Text Only | Print | Product List | Glossary On
Versions: 1 2 3 4 5 6 7 8 9 10 11 12
000
FTUS42 TJSJ 232339
TAFKPK
TAF
TKPK 232339Z 2400/2424 06012KT P6SM SCT019
     FM241400 10012KT P6SM FEW022
     FM242000 08011KT P6SM SCT019=

USA.gov is the U.S. government's official web portal to all federal, state and local government web resources and services.